Time;durP1;ratioP1;P1;durP2;ratioP2;P2;SDS_P1;SDS_P2;PMS_P1;PMS_P2;Temp;Humidity;BMP_temperature;BMP_pressure;BME280_temperature;BME280_humidity;BME280_pressure;Samples;Min_cycle;Max_cycle;Signal;HPM_P1;HPM_P2
2021/12/22 00:00:57;;;;;;;22.83;15.07;;;-1.10;99.90;;;;;;5111903;28;20485;-61
2021/12/22 00:03:23;;;;;;;26.55;14.77;;;-1.10;99.90;;;;;;5111863;28;20051;-60
2021/12/22 00:05:51;;;;;;;26.42;15.25;;;-1.10;99.90;;;;;;5111821;28;20036;-61
2021/12/22 00:08:17;;;;;;;25.45;14.57;;;-1.10;99.90;;;;;;5111998;28;20043;-60
2021/12/22 00:10:45;;;;;;;36.78;15.95;;;-1.20;99.90;;;;;;5111832;28;20051;-60
2021/12/22 00:13:11;;;;;;;26.52;15.63;;;-1.20;99.90;;;;;;5111790;28;20508;-60
2021/12/22 00:15:36;;;;;;;28.67;16.25;;;-1.20;99.90;;;;;;5111645;28;20036;-60
2021/12/22 00:18:03;;;;;;;26.65;15.13;;;-1.20;99.90;;;;;;5111723;28;20071;-60
2021/12/22 00:20:29;;;;;;;24.27;14.85;;;-1.20;99.90;;;;;;5111664;28;20047;-60
2021/12/22 00:22:55;;;;;;;29.83;14.93;;;-1.20;99.90;;;;;;5112305;28;20142;-61
2021/12/22 00:25:24;;;;;;;24.95;14.15;;;-1.20;99.90;;;;;;5114224;28;20031;-60
2021/12/22 00:27:50;;;;;;;23.35;13.55;;;-1.20;99.90;;;;;;5115453;28;20057;-60
2021/12/22 00:30:16;;;;;;;21.63;13.93;;;-1.10;99.90;;;;;;5115243;28;20042;-60
2021/12/22 00:32:49;;;;;;;29.73;15.07;;;-1.10;99.90;;;;;;5115332;28;20035;-60
2021/12/22 00:35:15;;;;;;;32.42;14.85;;;-1.10;99.90;;;;;;5115210;28;20044;-60
2021/12/22 00:37:41;;;;;;;29.80;14.57;;;-1.20;99.90;;;;;;5115230;28;20043;-60
2021/12/22 00:40:07;;;;;;;29.60;15.02;;;-1.30;99.90;;;;;;5114990;28;20042;-60
2021/12/22 00:42:33;;;;;;;56.22;20.45;;;-1.30;99.90;;;;;;5115233;28;20123;-60
2021/12/22 00:44:58;;;;;;;43.38;17.42;;;-1.40;99.90;;;;;;5115012;28;20126;-60
2021/12/22 00:47:27;;;;;;;32.67;17.17;;;-1.40;99.90;;;;;;5114984;28;20521;-60
2021/12/22 00:49:55;;;;;;;44.42;16.05;;;-1.50;99.90;;;;;;5115027;28;20050;-60
2021/12/22 00:52:21;;;;;;;22.90;13.85;;;-1.40;99.90;;;;;;5114951;28;20077;-60
2021/12/22 00:54:47;;;;;;;25.08;14.13;;;-1.40;99.90;;;;;;5114755;28;20508;-60
2021/12/22 00:57:15;;;;;;;25.05;14.23;;;-1.40;99.90;;;;;;5114905;28;20036;-60
2021/12/22 00:59:42;;;;;;;23.88;13.57;;;-1.30;99.90;;;;;;5113678;28;20122;-60
2021/12/22 01:02:10;;;;;;;25.50;13.13;;;-1.30;99.90;;;;;;5114731;28;20035;-60
2021/12/22 01:04:36;;;;;;;28.27;14.90;;;-1.40;99.90;;;;;;5113488;28;20043;-60
2021/12/22 01:07:03;;;;;;;23.92;14.77;;;-1.40;99.90;;;;;;5114680;28;20035;-60
2021/12/22 01:09:29;;;;;;;31.42;16.33;;;-1.40;99.90;;;;;;5114387;28;20482;-60
2021/12/22 01:11:54;;;;;;;21.02;14.10;;;-1.40;99.90;;;;;;5114665;28;20036;-60
2021/12/22 01:14:21;;;;;;;22.95;13.15;;;-1.60;99.90;;;;;;5113204;28;20119;-60
2021/12/22 01:16:49;;;;;;;22.73;13.85;;;-1.60;99.90;;;;;;5114383;28;20035;-60
2021/12/22 01:19:23;;;;;;;25.65;14.27;;;-1.60;99.90;;;;;;5113304;28;20067;-60
2021/12/22 01:21:57;;;;;;;22.63;13.27;;;-1.70;99.90;;;;;;5114255;28;20035;-60
2021/12/22 01:24:32;;;;;;;21.42;13.05;;;-1.70;99.90;;;;;;5114452;28;20130;-60
2021/12/22 01:27:05;;;;;;;23.58;12.70;;;-1.70;99.90;;;;;;5114302;28;20115;-60
2021/12/22 01:29:36;;;;;;;22.58;12.95;;;-1.80;99.90;;;;;;5114253;28;20118;-60
2021/12/22 01:32:02;;;;;;;19.60;13.27;;;-1.80;99.90;;;;;;5114040;28;20093;-60
2021/12/22 01:34:28;;;;;;;21.33;13.85;;;-1.90;99.90;;;;;;5113224;28;20428;-60
2021/12/22 01:36:54;;;;;;;20.65;12.50;;;-2.00;99.90;;;;;;5114042;28;20073;-60
2021/12/22 01:39:20;;;;;;;22.05;12.63;;;-2.00;99.90;;;;;;5114088;28;20043;-60
2021/12/22 01:41:46;;;;;;;22.38;13.93;;;-1.90;99.90;;;;;;5113927;28;20063;-60
2021/12/22 01:44:27;;;;;;;21.40;13.43;;;-1.90;99.90;;;;;;5113826;28;20032;-60
2021/12/22 01:49:50;;;;;;;18.05;11.70;;;-1.90;99.90;;;;;;5114074;28;20127;-60
2021/12/22 01:52:18;;;;;;;23.27;13.25;;;-1.90;99.90;;;;;;5113678;28;20110;-60
2021/12/22 01:54:50;;;;;;;24.23;14.30;;;-2.00;99.90;;;;;;5113777;28;20047;-60
2021/12/22 01:57:18;;;;;;;23.70;13.85;;;-2.00;99.90;;;;;;5113461;28;20552;-60
2021/12/22 01:59:46;;;;;;;17.80;11.60;;;-2.10;99.90;;;;;;5113990;27;20040;-60
2021/12/22 02:02:14;;;;;;;20.40;12.55;;;-2.10;99.90;;;;;;5113905;28;20147;-60
2021/12/22 02:04:41;;;;;;;18.63;12.60;;;-2.10;99.90;;;;;;5113691;28;20836;-60
2021/12/22 02:07:07;;;;;;;17.85;12.18;;;-2.10;99.90;;;;;;5113440;28;20504;-60
2021/12/22 02:12:11;;;;;;;20.83;12.90;;;-2.10;99.90;;;;;;5113512;28;20123;-60
2021/12/22 02:14:36;;;;;;;22.02;13.00;;;-2.10;99.90;;;;;;5113425;28;20424;-60
2021/12/22 02:17:07;;;;;;;23.23;13.38;;;-2.00;99.90;;;;;;5113241;28;20031;-60
2021/12/22 02:19:51;;;;;;;24.98;14.32;;;-2.00;99.90;;;;;;5112947;28;20068;-60
2021/12/22 02:22:18;;;;;;;20.63;13.20;;;-2.00;99.90;;;;;;5112999;28;20084;-60
2021/12/22 02:24:59;;;;;;;22.35;12.60;;;-2.00;99.90;;;;;;5111894;28;20397;-60
2021/12/22 02:30:22;;;;;;;21.77;12.13;;;-2.00;99.90;;;;;;5090358;28;20109;-60
2021/12/22 02:35:24;;;;;;;20.52;13.10;;;-2.00;99.90;;;;;;5090477;28;20039;-60
2021/12/22 02:37:50;;;;;;;20.48;13.52;;;-2.10;99.90;;;;;;5090373;28;20064;-60
2021/12/22 02:40:18;;;;;;;22.98;13.25;;;-2.10;99.90;;;;;;5073352;28;20051;-60
2021/12/22 02:42:52;;;;;;;21.00;13.70;;;-2.10;99.90;;;;;;5090264;28;20067;-60
2021/12/22 02:45:19;;;;;;;21.92;14.55;;;-2.10;99.90;;;;;;5090262;28;20044;-60
2021/12/22 02:47:46;;;;;;;20.95;13.23;;;-2.00;99.90;;;;;;5090064;28;20494;-60
2021/12/22 02:50:14;;;;;;;20.63;13.25;;;-2.00;99.90;;;;;;5090128;28;20039;-60
2021/12/22 02:55:40;;;;;;;21.77;13.63;;;-2.10;99.90;;;;;;5029788;28;20083;-60
2021/12/22 02:58:06;;;;;;;18.42;13.15;;;-2.10;99.90;;;;;;5029941;28;20057;-60
2021/12/22 03:00:49;;;;;;;23.77;14.50;;;-2.20;99.90;;;;;;5029838;28;20128;-60
2021/12/22 03:03:47;;;;;;;23.73;13.98;;;-2.10;99.90;;;;;;5029869;28;20087;-60
2021/12/22 03:06:18;;;;;;;23.60;14.15;;;-2.20;99.90;;;;;;5029618;28;20057;-60
2021/12/22 03:08:44;;;;;;;23.25;13.35;;;-2.10;99.90;;;;;;5029830;28;20060;-60
2021/12/22 03:11:09;;;;;;;20.70;13.20;;;-2.10;99.90;;;;;;5030101;28;20050;-60
2021/12/22 03:13:35;;;;;;;24.15;13.80;;;-2.10;99.90;;;;;;5029876;28;20052;-60
2021/12/22 03:16:00;;;;;;;18.35;12.95;;;-2.10;99.90;;;;;;5029738;28;20527;-60
2021/12/22 03:18:26;;;;;;;18.83;13.57;;;-2.10;99.90;;;;;;5029616;28;20052;-60
2021/12/22 03:21:01;;;;;;;21.83;13.48;;;-2.20;99.90;;;;;;5029624;28;20065;-60
2021/12/22 03:23:27;;;;;;;22.77;13.95;;;-2.10;99.90;;;;;;5029684;28;20053;-60
2021/12/22 03:25:53;;;;;;;22.30;14.43;;;-2.00;99.90;;;;;;5029659;28;20056;-60
2021/12/22 03:28:18;;;;;;;22.27;13.80;;;-2.00;99.90;;;;;;5013417;28;20049;-60
2021/12/22 03:30:44;;;;;;;21.95;13.73;;;-2.00;99.90;;;;;;5029767;28;20755;-60
2021/12/22 03:33:10;;;;;;;20.73;13.80;;;-2.00;99.90;;;;;;5095366;28;20040;-60
2021/12/22 03:35:38;;;;;;;23.67;13.80;;;-2.00;99.90;;;;;;5112374;28;20067;-60
2021/12/22 03:38:04;;;;;;;22.15;13.75;;;-2.00;99.90;;;;;;5112285;28;20491;-60
2021/12/22 03:40:30;;;;;;;20.83;14.23;;;-2.00;99.90;;;;;;5112013;28;20046;-60
2021/12/22 03:42:57;;;;;;;23.52;14.27;;;-2.00;99.90;;;;;;5112174;28;20393;-60
2021/12/22 03:45:23;;;;;;;20.27;13.65;;;-2.10;99.90;;;;;;5111991;28;20074;-60
2021/12/22 03:47:48;;;;;;;22.42;14.65;;;-2.00;99.90;;;;;;5112110;28;20128;-60
2021/12/22 03:50:16;;;;;;;24.67;14.32;;;-2.00;99.90;;;;;;5111877;28;20039;-60
2021/12/22 03:52:42;;;;;;;25.33;14.30;;;-2.00;99.90;;;;;;5112187;28;20032;-60
2021/12/22 03:55:08;;;;;;;29.70;15.32;;;-2.10;99.90;;;;;;5112095;28;20401;-61
2021/12/22 03:57:35;;;;;;;23.20;13.15;;;-2.10;99.90;;;;;;5112259;28;20042;-60
2021/12/22 04:00:02;;;;;;;25.40;15.07;;;-2.10;99.90;;;;;;5115854;28;20050;-60
2021/12/22 04:02:29;;;;;;;26.67;13.98;;;-2.10;99.90;;;;;;5116106;28;20039;-60
2021/12/22 04:04:54;;;;;;;25.45;14.20;;;-2.20;99.90;;;;;;5115585;28;20078;-60
2021/12/22 04:07:20;;;;;;;22.98;14.45;;;-2.20;99.90;;;;;;5115849;28;20109;-60
2021/12/22 04:09:46;;;;;;;22.63;14.75;;;-2.20;99.90;;;;;;5115817;28;20039;-60
2021/12/22 04:12:13;;;;;;;20.77;13.60;;;-2.20;99.90;;;;;;5115815;28;20454;-60
2021/12/22 04:14:38;;;;;;;23.60;13.95;;;-2.20;99.90;;;;;;5115756;28;20032;-60
2021/12/22 04:17:04;;;;;;;25.83;14.48;;;-2.20;99.90;;;;;;5115392;28;20041;-60
2021/12/22 04:19:30;;;;;;;24.50;14.13;;;-2.10;99.90;;;;;;5115518;28;20420;-60
2021/12/22 04:21:56;;;;;;;26.50;12.90;;;-2.20;99.90;;;;;;5115390;28;20046;-60
2021/12/22 04:24:22;;;;;;;18.23;12.93;;;-2.20;99.90;;;;;;5115430;28;20047;-60
2021/12/22 04:26:48;;;;;;;23.63;12.88;;;-2.20;99.90;;;;;;5115361;28;20036;-60
2021/12/22 04:29:14;;;;;;;19.85;12.95;;;-2.20;99.90;;;;;;5114096;28;20035;-60
2021/12/22 04:31:40;;;;;;;21.65;13.48;;;-2.20;99.90;;;;;;5115822;28;20039;-60
2021/12/22 04:34:08;;;;;;;23.75;13.73;;;-2.20;99.90;;;;;;5115510;28;20035;-60
2021/12/22 04:36:35;;;;;;;18.77;13.00;;;-2.20;99.90;;;;;;5115469;28;20052;-60
2021/12/22 04:39:01;;;;;;;20.58;13.10;;;-2.20;99.90;;;;;;5115385;28;20051;-60
2021/12/22 04:41:27;;;;;;;24.15;13.70;;;-2.20;99.90;;;;;;5115236;28;20039;-60
2021/12/22 04:43:53;;;;;;;20.50;12.52;;;-2.20;99.90;;;;;;5115121;28;20036;-60
2021/12/22 04:46:21;;;;;;;23.92;14.45;;;-2.20;99.90;;;;;;5114987;28;20108;-60
2021/12/22 04:48:47;;;;;;;24.13;13.18;;;-2.20;99.90;;;;;;5115259;27;20036;-60
2021/12/22 04:51:22;;;;;;;26.15;13.90;;;-2.20;99.90;;;;;;5114879;28;20515;-60
2021/12/22 04:53:53;;;;;;;25.05;13.50;;;-2.30;99.90;;;;;;5114963;28;20040;-60
2021/12/22 04:56:19;;;;;;;21.33;13.25;;;-2.30;99.90;;;;;;5114713;28;20477;-60
2021/12/22 04:58:45;;;;;;;21.83;12.88;;;-2.30;99.90;;;;;;5114969;28;20122;-60
2021/12/22 05:01:11;;;;;;;27.48;13.80;;;-2.20;99.90;;;;;;5115002;28;20050;-60
2021/12/22 05:03:39;;;;;;;21.27;13.18;;;-2.30;99.90;;;;;;5114804;28;20047;-60
2021/12/22 05:06:04;;;;;;;22.20;12.27;;;-2.30;99.90;;;;;;5114438;28;20393;-60
2021/12/22 05:08:30;;;;;;;22.15;12.13;;;-2.30;99.90;;;;;;5114516;27;20039;-60
2021/12/22 05:10:55;;;;;;;23.65;12.77;;;-2.30;99.90;;;;;;5113281;28;20070;-60
2021/12/22 05:13:21;;;;;;;20.65;13.18;;;-2.30;99.90;;;;;;5114682;28;20032;-60
2021/12/22 05:15:47;;;;;;;22.05;12.77;;;-2.30;99.90;;;;;;5114638;28;20039;-60
2021/12/22 05:18:24;;;;;;;20.33;12.85;;;-2.40;99.90;;;;;;5114664;28;20083;-60
2021/12/22 05:20:51;;;;;;;24.67;13.57;;;-2.30;99.90;;;;;;5114310;28;20083;-60
2021/12/22 05:23:18;;;;;;;23.02;12.38;;;-2.40;99.90;;;;;;5114266;28;20040;-60
2021/12/22 05:25:44;;;;;;;22.42;12.55;;;-2.40;99.90;;;;;;5114064;28;20048;-60
2021/12/22 05:28:09;;;;;;;19.85;12.38;;;-2.40;99.90;;;;;;5114485;28;20099;-60
2021/12/22 05:30:35;;;;;;;26.55;12.50;;;-2.40;99.90;;;;;;5114150;28;20370;-60
2021/12/22 05:33:01;;;;;;;22.48;12.43;;;-2.40;99.90;;;;;;5114327;28;20038;-60
2021/12/22 05:35:26;;;;;;;17.67;12.13;;;-2.40;99.90;;;;;;5114171;28;20116;-60
2021/12/22 05:37:52;;;;;;;22.92;12.35;;;-2.40;99.90;;;;;;5114060;28;20043;-60
2021/12/22 05:40:18;;;;;;;27.75;12.48;;;-2.40;99.90;;;;;;5114203;28;20046;-60
2021/12/22 05:42:43;;;;;;;18.75;11.80;;;-2.40;99.90;;;;;;5114117;27;20035;-60
2021/12/22 05:45:09;;;;;;;21.48;11.95;;;-2.50;99.90;;;;;;5114253;28;20169;-60
2021/12/22 05:47:35;;;;;;;22.63;13.00;;;-2.50;99.90;;;;;;5114055;28;20088;-60
2021/12/22 05:50:03;;;;;;;23.20;12.55;;;-2.50;99.90;;;;;;5113852;28;20038;-60
2021/12/22 05:52:29;;;;;;;17.77;11.43;;;-2.40;99.90;;;;;;5113765;28;20032;-60
2021/12/22 05:54:55;;;;;;;21.02;12.38;;;-2.50;99.90;;;;;;5113653;28;20047;-60
2021/12/22 05:57:21;;;;;;;21.85;12.68;;;-2.50;99.90;;;;;;5113686;28;20513;-60
2021/12/22 05:59:47;;;;;;;25.38;13.90;;;-2.50;99.90;;;;;;5113545;28;20061;-60
2021/12/22 06:02:12;;;;;;;22.00;13.95;;;-2.50;99.90;;;;;;5113581;28;20084;-60
2021/12/22 06:04:38;;;;;;;22.10;13.43;;;-2.50;99.90;;;;;;5113396;28;20393;-60
2021/12/22 06:07:04;;;;;;;20.42;12.90;;;-2.60;99.90;;;;;;5113411;28;20039;-60
2021/12/22 06:09:29;;;;;;;17.88;11.90;;;-2.60;99.90;;;;;;5113351;28;20038;-60
2021/12/22 06:11:55;;;;;;;21.23;12.93;;;-2.60;99.90;;;;;;5113557;28;20039;-60
2021/12/22 06:14:21;;;;;;;20.77;11.90;;;-2.60;99.90;;;;;;5113306;28;20035;-60
2021/12/22 06:16:46;;;;;;;17.92;13.05;;;-2.70;99.90;;;;;;5113367;28;20059;-60
2021/12/22 06:19:13;;;;;;;22.10;11.45;;;-2.70;99.90;;;;;;5113019;28;20057;-60
2021/12/22 06:21:39;;;;;;;17.95;12.13;;;-2.70;99.90;;;;;;5111828;28;20097;-60
2021/12/22 06:24:05;;;;;;;20.73;12.45;;;-2.60;99.90;;;;;;5113039;28;20461;-60
2021/12/22 06:26:30;;;;;;;20.98;11.88;;;-2.70;99.90;;;;;;5113147;28;20063;-60
2021/12/22 06:28:56;;;;;;;24.00;13.70;;;-2.70;99.90;;;;;;5112966;28;20032;-60
2021/12/22 06:31:22;;;;;;;20.15;12.80;;;-2.80;99.90;;;;;;5113146;28;20032;-60
2021/12/22 06:33:47;;;;;;;20.90;12.68;;;-2.70;99.90;;;;;;5113079;28;20092;-60
2021/12/22 06:36:13;;;;;;;21.23;12.73;;;-2.70;99.90;;;;;;5112755;28;20489;-60
2021/12/22 06:38:39;;;;;;;24.85;14.15;;;-2.70;99.90;;;;;;5112651;28;20040;-60
2021/12/22 06:41:06;;;;;;;24.10;13.50;;;-2.70;99.90;;;;;;5112993;28;20031;-60
2021/12/22 06:43:31;;;;;;;18.23;11.93;;;-2.70;99.90;;;;;;5111550;28;20047;-60
2021/12/22 06:45:57;;;;;;;22.63;12.00;;;-2.70;99.90;;;;;;5112469;28;20446;-60
2021/12/22 06:48:23;;;;;;;22.13;13.45;;;-2.70;99.90;;;;;;5112819;28;20050;-60
2021/12/22 06:50:49;;;;;;;21.67;13.05;;;-2.70;99.90;;;;;;5112476;28;20080;-60
2021/12/22 06:53:14;;;;;;;21.00;12.80;;;-2.70;99.90;;;;;;5112599;28;20036;-60
2021/12/22 06:55:40;;;;;;;23.20;12.77;;;-2.80;99.90;;;;;;5112831;28;20405;-60
2021/12/22 06:58:05;;;;;;;21.63;12.85;;;-2.70;99.90;;;;;;5112485;28;20441;-60
2021/12/22 07:00:32;;;;;;;20.08;12.32;;;-2.80;99.90;;;;;;5112712;28;20042;-60
2021/12/22 07:02:58;;;;;;;23.33;13.55;;;-2.80;99.90;;;;;;5112560;28;20043;-60
2021/12/22 07:05:24;;;;;;;20.98;13.57;;;-2.80;99.90;;;;;;5112237;28;20056;-60
2021/12/22 07:07:50;;;;;;;24.08;13.82;;;-2.80;99.90;;;;;;5112487;28;20065;-60
2021/12/22 07:10:16;;;;;;;25.88;13.77;;;-2.80;99.90;;;;;;5112714;28;20096;-60
2021/12/22 07:12:46;;;;;;;27.52;14.68;;;-2.80;99.90;;;;;;5112370;28;20031;-60
2021/12/22 07:15:14;;;;;;;24.23;13.00;;;-2.80;99.90;;;;;;5112261;28;20039;-60
2021/12/22 07:17:45;;;;;;;25.63;14.73;;;-2.80;99.90;;;;;;5112411;28;20085;-60
2021/12/22 07:20:12;;;;;;;24.38;14.07;;;-2.80;99.90;;;;;;5112112;28;20474;-60
2021/12/22 07:22:39;;;;;;;25.10;14.02;;;-2.80;99.90;;;;;;5112500;28;20510;-60
2021/12/22 07:25:06;;;;;;;23.20;13.40;;;-2.90;99.90;;;;;;5112151;28;20474;-60
2021/12/22 07:27:32;;;;;;;22.95;12.82;;;-2.80;99.90;;;;;;5112351;28;20046;-60
2021/12/22 07:29:57;;;;;;;25.20;12.95;;;-2.80;99.90;;;;;;5110512;28;20051;-60
2021/12/22 07:32:23;;;;;;;25.08;12.57;;;-2.80;99.90;;;;;;5112251;28;20103;-60
2021/12/22 07:34:57;;;;;;;23.48;13.60;;;-2.80;99.90;;;;;;5116268;28;20102;-60
2021/12/22 07:37:41;;;;;;;22.73;12.73;;;-2.90;99.90;;;;;;5116400;27;20460;-60
2021/12/22 07:40:12;;;;;;;24.10;14.27;;;-2.80;99.90;;;;;;5116193;28;20514;-60
2021/12/22 07:42:38;;;;;;;25.77;13.57;;;-2.80;99.90;;;;;;5116270;28;20036;-60
2021/12/22 07:45:05;;;;;;;22.40;12.80;;;-2.70;99.90;;;;;;5116136;28;20047;-60
2021/12/22 07:47:30;;;;;;;26.23;13.43;;;-2.80;99.90;;;;;;5116326;27;20044;-60
2021/12/22 07:49:56;;;;;;;27.73;13.68;;;-2.80;99.90;;;;;;5116301;28;20477;-60
2021/12/22 07:52:26;;;;;;;22.05;13.13;;;-2.80;99.90;;;;;;5116218;28;20400;-60
2021/12/22 07:54:52;;;;;;;24.55;13.10;;;-2.80;99.90;;;;;;5116106;28;20100;-60
2021/12/22 07:57:18;;;;;;;21.25;13.30;;;-2.90;99.90;;;;;;5115987;28;20035;-60
2021/12/22 07:59:43;;;;;;;26.42;13.07;;;-2.80;99.90;;;;;;5115719;28;20045;-60
2021/12/22 08:02:10;;;;;;;22.15;12.95;;;-2.80;99.90;;;;;;5115803;28;20036;-60
2021/12/22 08:04:36;;;;;;;21.23;13.85;;;-2.80;99.90;;;;;;5115638;28;20036;-60
2021/12/22 08:07:02;;;;;;;22.15;12.65;;;-2.80;99.90;;;;;;5115874;28;20039;-60
2021/12/22 08:09:28;;;;;;;21.90;13.20;;;-2.80;99.90;;;;;;5115719;28;20032;-60
2021/12/22 08:11:56;;;;;;;19.85;12.50;;;-2.70;99.90;;;;;;5115697;28;20069;-60
2021/12/22 08:14:23;;;;;;;21.45;12.50;;;-2.70;99.90;;;;;;5115692;28;20038;-60
2021/12/22 08:16:52;;;;;;;22.17;13.40;;;-2.60;99.90;;;;;;5115805;28;20059;-60
2021/12/22 08:19:18;;;;;;;24.05;12.70;;;-2.50;99.90;;;;;;5115391;28;20375;-60
2021/12/22 08:21:46;;;;;;;26.45;15.07;;;-2.70;99.90;;;;;;5115568;28;20122;-60
2021/12/22 08:24:14;;;;;;;25.40;13.13;;;-2.70;99.90;;;;;;5115247;28;20049;-60
2021/12/22 08:26:39;;;;;;;23.88;13.45;;;-2.60;99.90;;;;;;5115129;28;20047;-60
2021/12/22 08:29:05;;;;;;;24.70;13.35;;;-2.60;99.90;;;;;;5115582;27;20040;-60
2021/12/22 08:31:31;;;;;;;21.08;13.50;;;-2.60;99.90;;;;;;5115612;28;20059;-60
2021/12/22 08:33:56;;;;;;;23.25;13.48;;;-2.60;99.90;;;;;;5115585;28;20375;-60
2021/12/22 08:39:12;;;;;;;27.00;12.82;;;-2.50;99.90;;;;;;5115112;28;20481;-60
2021/12/22 08:41:47;;;;;;;22.00;12.85;;;-2.50;99.90;;;;;;5113875;28;20040;-60
2021/12/22 08:44:17;;;;;;;24.08;13.10;;;-2.50;99.90;;;;;;5114977;28;20043;-60
2021/12/22 08:46:48;;;;;;;19.73;11.88;;;-2.50;99.90;;;;;;5115019;28;20597;-60
2021/12/22 08:49:14;;;;;;;28.38;13.13;;;-2.50;99.90;;;;;;5115053;28;20115;-60
2021/12/22 08:51:39;;;;;;;22.30;13.38;;;-2.40;99.90;;;;;;5114866;28;20047;-60
2021/12/22 08:54:05;;;;;;;24.38;13.35;;;-2.20;99.90;;;;;;5115089;28;20031;-60
2021/12/22 08:56:32;;;;;;;24.88;13.82;;;-2.30;99.90;;;;;;5114985;28;20039;-60
2021/12/22 08:58:58;;;;;;;22.83;13.82;;;-2.30;99.90;;;;;;5114873;28;20398;-60
2021/12/22 09:01:26;;;;;;;27.05;14.10;;;-2.30;99.90;;;;;;5114826;28;20043;-60
2021/12/22 09:03:52;;;;;;;29.77;14.25;;;-2.20;99.90;;;;;;5114738;28;20059;-60
2021/12/22 09:06:17;;;;;;;23.85;13.38;;;-2.10;99.90;;;;;;5113211;28;20396;-61
2021/12/22 09:08:43;;;;;;;26.75;14.00;;;-2.00;99.90;;;;;;5114776;28;20035;-60
2021/12/22 09:11:11;;;;;;;25.75;13.20;;;-2.00;99.90;;;;;;5114862;28;20035;-60
2021/12/22 09:13:38;;;;;;;30.02;13.73;;;-2.10;99.90;;;;;;5114581;28;20100;-61
2021/12/22 09:16:04;;;;;;;25.42;14.40;;;-2.10;99.90;;;;;;5114579;28;20039;-61
2021/12/22 09:18:30;;;;;;;26.42;14.88;;;-2.00;99.90;;;;;;5114523;28;20044;-61
2021/12/22 09:20:56;;;;;;;20.77;13.23;;;-2.00;99.90;;;;;;5114101;28;20112;-61
2021/12/22 09:23:21;;;;;;;24.80;14.25;;;-1.90;99.90;;;;;;5114458;28;20118;-59
2021/12/22 09:25:47;;;;;;;22.95;13.70;;;-1.90;99.90;;;;;;5114173;28;20469;-59
2021/12/22 09:28:13;;;;;;;24.58;14.52;;;-1.80;99.90;;;;;;5114393;28;20537;-59
2021/12/22 09:30:40;;;;;;;21.02;13.15;;;-1.80;99.90;;;;;;5114229;28;20130;-59
2021/12/22 09:33:11;;;;;;;26.20;14.85;;;-1.80;99.90;;;;;;5114142;28;20047;-59
2021/12/22 09:35:37;;;;;;;23.15;13.63;;;-1.70;99.90;;;;;;5113976;28;20040;-59
2021/12/22 09:38:03;;;;;;;28.80;14.38;;;-1.70;99.90;;;;;;5114226;28;20043;-59
2021/12/22 09:40:30;;;;;;;25.52;14.15;;;-1.60;99.90;;;;;;5114189;28;20035;-59
2021/12/22 09:42:56;;;;;;;22.02;13.18;;;-1.50;99.90;;;;;;5113871;28;20039;-59
2021/12/22 09:45:24;;;;;;;25.90;13.82;;;-1.50;99.90;;;;;;5113712;28;20489;-59
2021/12/22 09:48:18;;;;;;;24.70;13.70;;;-1.40;99.90;;;;;;5113792;28;20530;-59
2021/12/22 09:52:15;;;;;;;25.50;13.88;;;-1.40;99.90;;;;;;5113738;28;20039;-59
2021/12/22 09:53:40;;;;;;;23.23;14.27;;;-1.30;99.90;;;;;;5113561;28;20051;-59
2021/12/22 09:56:06;;;;;;;25.50;13.77;;;-1.20;99.90;;;;;;5113331;28;20046;-59
2021/12/22 09:58:32;;;;;;;22.63;14.18;;;-1.20;99.90;;;;;;5113851;28;20040;-59
2021/12/22 10:00:58;;;;;;;24.02;13.73;;;-1.20;99.90;;;;;;5113880;28;20043;-59
2021/12/22 10:03:25;;;;;;;26.73;14.70;;;-1.20;99.90;;;;;;5113683;28;20036;-59
2021/12/22 10:05:51;;;;;;;23.55;14.25;;;-1.00;99.90;;;;;;5113640;28;20185;-59
2021/12/22 10:08:20;;;;;;;26.13;13.85;;;-1.00;99.90;;;;;;5113592;28;20043;-59
2021/12/22 10:11:09;;;;;;;23.67;13.68;;;-1.00;99.90;;;;;;5113471;28;20393;-59
2021/12/22 10:13:39;;;;;;;23.75;13.70;;;-1.00;99.90;;;;;;5113603;28;20036;-59
2021/12/22 10:16:23;;;;;;;25.80;14.20;;;-0.90;99.90;;;;;;5113278;28;20096;-59
2021/12/22 10:19:07;;;;;;;23.48;13.68;;;-0.90;99.90;;;;;;5113402;28;20115;-59
2021/12/22 10:21:36;;;;;;;24.40;14.00;;;-0.90;99.90;;;;;;5112068;28;20048;-59
2021/12/22 10:24:05;;;;;;;24.95;13.30;;;-0.80;99.90;;;;;;5113044;28;20078;-59
2021/12/22 10:26:31;;;;;;;24.65;13.32;;;-0.80;99.90;;;;;;5113174;28;20044;-59
2021/12/22 10:29:01;;;;;;;24.70;13.43;;;-0.70;99.90;;;;;;5113101;28;20061;-59
2021/12/22 10:31:38;;;;;;;22.70;12.43;;;-0.70;99.90;;;;;;5113186;28;20043;-59
2021/12/22 10:34:12;;;;;;;28.90;14.50;;;-0.60;99.90;;;;;;5113027;27;20043;-59
2021/12/22 10:36:48;;;;;;;21.98;13.35;;;-0.60;99.90;;;;;;5111713;28;20499;-59
2021/12/22 10:39:24;;;;;;;18.55;12.05;;;-0.50;99.90;;;;;;5112973;28;20036;-59
2021/12/22 10:41:51;;;;;;;19.92;13.70;;;-0.50;99.90;;;;;;5112912;28;20500;-60
2021/12/22 10:44:20;;;;;;;23.33;12.80;;;-0.50;99.90;;;;;;5112849;28;20039;-59
2021/12/22 10:46:49;;;;;;;21.48;12.65;;;-0.50;99.90;;;;;;5112903;28;20036;-59
2021/12/22 10:49:20;;;;;;;21.33;12.57;;;-0.40;99.90;;;;;;5112946;28;20426;-59
2021/12/22 10:52:03;;;;;;;23.15;13.15;;;-0.40;99.90;;;;;;5112931;28;20122;-59
2021/12/22 10:54:38;;;;;;;23.55;12.55;;;-0.30;99.90;;;;;;5112730;28;20046;-59
2021/12/22 10:57:12;;;;;;;21.15;12.52;;;-0.30;99.90;;;;;;5112632;28;20047;-59
2021/12/22 10:59:53;;;;;;;22.30;11.38;;;-0.30;99.90;;;;;;5112443;28;20507;-59
2021/12/22 11:02:31;;;;;;;25.90;12.85;;;-0.20;99.90;;;;;;5112634;28;20122;-60
2021/12/22 11:04:56;;;;;;;20.67;12.02;;;-0.20;99.90;;;;;;5112375;28;20040;-59
2021/12/22 11:07:26;;;;;;;21.42;12.10;;;-0.20;99.90;;;;;;5112653;28;20100;-59
2021/12/22 11:09:52;;;;;;;26.90;12.38;;;-0.20;99.90;;;;;;5112663;28;20423;-59
2021/12/22 11:12:36;;;;;;;24.27;12.18;;;-0.20;99.90;;;;;;5112612;28;20408;-60
2021/12/22 11:15:03;;;;;;;23.13;12.20;;;-0.30;99.90;;;;;;5112564;28;20071;-59
2021/12/22 11:17:29;;;;;;;18.40;11.23;;;-0.20;99.90;;;;;;5111297;28;20089;-59
2021/12/22 11:20:00;;;;;;;19.25;12.40;;;-0.10;99.90;;;;;;5112123;28;20056;-60
2021/12/22 11:22:53;;;;;;;26.75;12.63;;;-0.10;99.90;;;;;;5112582;28;20493;-59
2021/12/22 11:25:20;;;;;;;18.60;11.35;;;-0.20;99.90;;;;;;5112330;28;20048;-59
2021/12/22 11:27:49;;;;;;;19.58;11.30;;;-0.20;99.90;;;;;;5112372;28;20063;-59
2021/12/22 11:30:14;;;;;;;22.52;12.15;;;-0.10;99.90;;;;;;5112473;28;20039;-59
2021/12/22 11:32:41;;;;;;;19.55;11.80;;;-0.10;99.90;;;;;;5112471;28;20047;-59
2021/12/22 11:35:09;;;;;;;20.15;12.25;;;0.00;99.90;;;;;;5112024;28;20520;-59
2021/12/22 11:37:36;;;;;;;18.00;11.63;;;0.10;99.90;;;;;;5112401;28;20091;-59
2021/12/22 11:40:04;;;;;;;23.05;12.75;;;0.20;99.90;;;;;;5112256;28;20077;-59
2021/12/22 11:42:37;;;;;;;19.60;11.70;;;0.30;99.90;;;;;;5112385;28;20035;-60
2021/12/22 11:45:30;;;;;;;22.40;12.15;;;0.50;99.90;;;;;;5111800;28;20520;-60
2021/12/22 11:47:57;;;;;;;19.98;11.90;;;0.50;99.90;;;;;;5112168;28;20031;-59
2021/12/22 11:50:26;;;;;;;19.92;12.00;;;0.60;99.90;;;;;;5112018;28;20036;-59
2021/12/22 11:52:59;;;;;;;18.50;10.93;;;0.50;99.90;;;;;;5112042;28;20040;-60
2021/12/22 11:55:46;;;;;;;16.88;10.93;;;0.50;99.90;;;;;;5111908;28;20054;-60
2021/12/22 11:58:21;;;;;;;22.58;12.10;;;0.50;99.90;;;;;;5111564;28;20408;-60
2021/12/22 12:00:55;;;;;;;19.85;11.13;;;0.50;99.90;;;;;;5111993;28;20039;-59
2021/12/22 12:03:31;;;;;;;21.77;11.70;;;0.50;99.90;;;;;;5111901;28;20512;-60
2021/12/22 12:06:08;;;;;;;18.70;11.75;;;0.50;99.90;;;;;;5112391;28;20044;-59
2021/12/22 12:08:56;;;;;;;21.40;11.85;;;0.30;99.90;;;;;;5112076;28;20040;-59
2021/12/22 12:11:44;;;;;;;22.00;12.30;;;0.30;99.90;;;;;;5111911;28;20397;-59
2021/12/22 12:14:38;;;;;;;19.02;10.73;;;0.30;99.90;;;;;;5112096;28;20043;-59
2021/12/22 12:23:30;;;;;;;19.45;10.93;;;0.20;99.90;;;;;;5115797;27;20086;-59
2021/12/22 12:25:57;;;;;;;21.80;12.52;;;0.00;99.90;;;;;;5115412;28;20108;-59
2021/12/22 12:28:24;;;;;;;25.73;13.30;;;0.00;99.90;;;;;;5115345;28;20070;-59
2021/12/22 12:30:55;;;;;;;19.27;11.98;;;0.10;99.90;;;;;;5115505;28;20039;-59
2021/12/22 12:33:29;;;;;;;17.10;11.55;;;0.10;99.90;;;;;;5115410;28;20063;-59
2021/12/22 12:35:56;;;;;;;17.90;11.32;;;0.10;99.90;;;;;;5115326;28;20057;-59
2021/12/22 12:38:39;;;;;;;18.13;10.70;;;0.10;99.90;;;;;;5115337;27;20089;-59
2021/12/22 12:41:13;;;;;;;18.73;12.15;;;0.10;99.90;;;;;;5115196;28;20039;-59
2021/12/22 12:43:46;;;;;;;21.20;12.20;;;0.10;99.90;;;;;;5115301;28;20044;-59
2021/12/22 12:46:23;;;;;;;16.55;10.85;;;0.10;99.90;;;;;;5096951;28;20051;-59
2021/12/22 12:48:51;;;;;;;22.75;11.57;;;0.00;99.90;;;;;;5115076;28;20040;-59
2021/12/22 12:51:33;;;;;;;18.10;11.30;;;0.10;99.90;;;;;;5114887;28;20034;-60
2021/12/22 12:53:59;;;;;;;18.15;11.00;;;0.10;99.90;;;;;;5115104;28;20043;-60
2021/12/22 12:56:37;;;;;;;19.65;11.52;;;0.00;99.90;;;;;;5115006;28;20067;-59
2021/12/22 12:59:08;;;;;;;17.60;9.93;;;0.10;99.90;;;;;;5114606;28;20044;-59